sensor_id;sensor_type;location;lat;lon;timestamp;P1;durP1;ratioP1;P2;durP2;ratioP2
1024;SDS011;501;48.214;11.350;2022-10-16T00:01:21;3.57;;;2.70;;
1024;SDS011;501;48.214;11.350;2022-10-16T00:03:49;2.50;;;2.27;;
1024;SDS011;501;48.214;11.350;2022-10-16T00:06:16;2.23;;;2.03;;
1024;SDS011;501;48.214;11.350;2022-10-16T00:08:42;2.87;;;2.27;;
1024;SDS011;501;48.214;11.350;2022-10-16T00:11:12;1.63;;;1.53;;
1024;SDS011;501;48.214;11.350;2022-10-16T00:13:43;2.63;;;2.20;;
1024;SDS011;501;48.214;11.350;2022-10-16T00:16:11;4.20;;;1.90;;
1024;SDS011;501;48.214;11.350;2022-10-16T00:18:37;3.17;;;1.80;;
1024;SDS011;501;48.214;11.350;2022-10-16T00:21:07;2.60;;;2.13;;
1024;SDS011;501;48.214;11.350;2022-10-16T00:23:38;2.23;;;2.00;;
1024;SDS011;501;48.214;11.350;2022-10-16T00:26:05;1.60;;;1.50;;
1024;SDS011;501;48.214;11.350;2022-10-16T00:28:33;1.90;;;1.40;;
1024;SDS011;501;48.214;11.350;2022-10-16T00:31:02;3.43;;;1.77;;
1024;SDS011;501;48.214;11.350;2022-10-16T00:33:28;2.53;;;1.60;;
1024;SDS011;501;48.214;11.350;2022-10-16T00:35:54;2.00;;;1.70;;
1024;SDS011;501;48.214;11.350;2022-10-16T00:38:23;1.67;;;1.57;;
1024;SDS011;501;48.214;11.350;2022-10-16T00:40:49;1.70;;;1.60;;
1024;SDS011;501;48.214;11.350;2022-10-16T00:46:02;2.50;;;1.60;;
1024;SDS011;501;48.214;11.350;2022-10-16T00:48:30;2.00;;;1.80;;
1024;SDS011;501;48.214;11.350;2022-10-16T00:50:56;2.43;;;1.80;;
1024;SDS011;501;48.214;11.350;2022-10-16T00:53:23;1.87;;;1.77;;
1024;SDS011;501;48.214;11.350;2022-10-16T00:55:50;1.60;;;1.50;;
1024;SDS011;501;48.214;11.350;2022-10-16T00:58:18;1.87;;;1.73;;
1024;SDS011;501;48.214;11.350;2022-10-16T01:00:44;1.87;;;1.77;;
1024;SDS011;501;48.214;11.350;2022-10-16T01:03:30;2.90;;;1.33;;
1024;SDS011;501;48.214;11.350;2022-10-16T01:08:52;3.10;;;1.60;;
1024;SDS011;501;48.214;11.350;2022-10-16T01:14:19;2.70;;;1.60;;
1024;SDS011;501;48.214;11.350;2022-10-16T01:20:08;4.00;;;1.80;;
1024;SDS011;501;48.214;11.350;2022-10-16T01:22:39;1.53;;;1.43;;
1024;SDS011;501;48.214;11.350;2022-10-16T01:25:36;3.40;;;1.90;;
1024;SDS011;501;48.214;11.350;2022-10-16T01:28:14;2.23;;;2.03;;
1024;SDS011;501;48.214;11.350;2022-10-16T01:30:40;1.57;;;1.47;;
1024;SDS011;501;48.214;11.350;2022-10-16T01:33:10;3.43;;;1.47;;
1024;SDS011;501;48.214;11.350;2022-10-16T01:35:54;1.63;;;1.53;;
1024;SDS011;501;48.214;11.350;2022-10-16T01:38:35;2.60;;;2.07;;
1024;SDS011;501;48.214;11.350;2022-10-16T01:41:10;2.07;;;1.43;;
1024;SDS011;501;48.214;11.350;2022-10-16T01:43:49;2.97;;;1.70;;
1024;SDS011;501;48.214;11.350;2022-10-16T01:46:36;2.27;;;2.17;;
1024;SDS011;501;48.214;11.350;2022-10-16T01:49:04;2.10;;;1.90;;
1024;SDS011;501;48.214;11.350;2022-10-16T01:51:31;2.27;;;2.07;;
1024;SDS011;501;48.214;11.350;2022-10-16T01:53:59;2.50;;;1.70;;
1024;SDS011;501;48.214;11.350;2022-10-16T01:56:26;2.10;;;1.83;;
1024;SDS011;501;48.214;11.350;2022-10-16T01:59:01;1.67;;;1.40;;
1024;SDS011;501;48.214;11.350;2022-10-16T02:01:28;1.67;;;1.57;;
1024;SDS011;501;48.214;11.350;2022-10-16T02:03:57;2.73;;;1.60;;
1024;SDS011;501;48.214;11.350;2022-10-16T02:06:26;4.53;;;1.57;;
1024;SDS011;501;48.214;11.350;2022-10-16T02:08:53;2.90;;;1.77;;
1024;SDS011;501;48.214;11.350;2022-10-16T02:11:18;4.20;;;1.30;;
1024;SDS011;501;48.214;11.350;2022-10-16T02:17:09;2.70;;;1.67;;
1024;SDS011;501;48.214;11.350;2022-10-16T02:19:21;1.70;;;1.40;;
1024;SDS011;501;48.214;11.350;2022-10-16T02:21:51;3.30;;;2.27;;
1024;SDS011;501;48.214;11.350;2022-10-16T02:29:49;1.70;;;1.50;;
1024;SDS011;501;48.214;11.350;2022-10-16T02:32:23;2.40;;;2.20;;
1024;SDS011;501;48.214;11.350;2022-10-16T02:34:52;2.90;;;2.00;;
1024;SDS011;501;48.214;11.350;2022-10-16T02:37:19;1.80;;;1.70;;
1024;SDS011;501;48.214;11.350;2022-10-16T02:39:45;3.10;;;2.00;;
1024;SDS011;501;48.214;11.350;2022-10-16T02:42:14;1.60;;;1.43;;
1024;SDS011;501;48.214;11.350;2022-10-16T02:44:42;3.23;;;1.60;;
1024;SDS011;501;48.214;11.350;2022-10-16T02:47:08;3.40;;;1.57;;
1024;SDS011;501;48.214;11.350;2022-10-16T02:49:33;6.07;;;2.33;;
1024;SDS011;501;48.214;11.350;2022-10-16T02:51:59;1.90;;;1.40;;
1024;SDS011;501;48.214;11.350;2022-10-16T02:54:24;2.60;;;1.97;;
1024;SDS011;501;48.214;11.350;2022-10-16T02:56:50;1.73;;;1.13;;
1024;SDS011;501;48.214;11.350;2022-10-16T02:59:16;1.53;;;1.43;;
1024;SDS011;501;48.214;11.350;2022-10-16T03:01:42;2.70;;;1.67;;
1024;SDS011;501;48.214;11.350;2022-10-16T03:04:08;1.60;;;1.50;;
1024;SDS011;501;48.214;11.350;2022-10-16T03:06:34;5.43;;;2.13;;
1024;SDS011;501;48.214;11.350;2022-10-16T03:08:59;2.93;;;2.63;;
1024;SDS011;501;48.214;11.350;2022-10-16T03:11:25;3.70;;;2.17;;
1024;SDS011;501;48.214;11.350;2022-10-16T03:13:51;1.70;;;1.60;;
1024;SDS011;501;48.214;11.350;2022-10-16T03:16:17;3.63;;;1.83;;
1024;SDS011;501;48.214;11.350;2022-10-16T03:18:42;6.00;;;4.43;;
1024;SDS011;501;48.214;11.350;2022-10-16T03:21:08;5.23;;;4.83;;
1024;SDS011;501;48.214;11.350;2022-10-16T03:23:33;6.20;;;5.27;;
1024;SDS011;501;48.214;11.350;2022-10-16T03:25:59;5.53;;;5.03;;
1024;SDS011;501;48.214;11.350;2022-10-16T03:28:25;6.03;;;3.63;;
1024;SDS011;501;48.214;11.350;2022-10-16T03:30:50;2.60;;;2.40;;
1024;SDS011;501;48.214;11.350;2022-10-16T03:33:16;2.50;;;2.30;;
1024;SDS011;501;48.214;11.350;2022-10-16T03:35:41;4.37;;;2.53;;
1024;SDS011;501;48.214;11.350;2022-10-16T03:38:07;4.53;;;2.83;;
1024;SDS011;501;48.214;11.350;2022-10-16T03:40:33;3.37;;;2.87;;
1024;SDS011;501;48.214;11.350;2022-10-16T03:42:58;2.50;;;2.30;;
1024;SDS011;501;48.214;11.350;2022-10-16T03:45:24;5.03;;;1.93;;
1024;SDS011;501;48.214;11.350;2022-10-16T03:47:51;1.67;;;1.57;;
1024;SDS011;501;48.214;11.350;2022-10-16T03:50:16;1.80;;;1.67;;
1024;SDS011;501;48.214;11.350;2022-10-16T03:52:42;2.87;;;2.10;;
1024;SDS011;501;48.214;11.350;2022-10-16T03:55:07;2.30;;;1.90;;
1024;SDS011;501;48.214;11.350;2022-10-16T03:57:33;3.23;;;2.00;;
1024;SDS011;501;48.214;11.350;2022-10-16T03:59:59;2.10;;;1.63;;
1024;SDS011;501;48.214;11.350;2022-10-16T04:02:24;3.10;;;2.13;;
1024;SDS011;501;48.214;11.350;2022-10-16T04:04:50;4.03;;;1.90;;
1024;SDS011;501;48.214;11.350;2022-10-16T04:07:16;2.77;;;2.00;;
1024;SDS011;501;48.214;11.350;2022-10-16T04:09:42;1.90;;;1.70;;
1024;SDS011;501;48.214;11.350;2022-10-16T04:12:07;2.40;;;1.80;;
1024;SDS011;501;48.214;11.350;2022-10-16T04:14:33;1.90;;;1.80;;
1024;SDS011;501;48.214;11.350;2022-10-16T04:16:59;2.30;;;1.97;;
1024;SDS011;501;48.214;11.350;2022-10-16T04:19:24;1.80;;;1.70;;
1024;SDS011;501;48.214;11.350;2022-10-16T04:21:51;3.47;;;2.10;;
1024;SDS011;501;48.214;11.350;2022-10-16T04:24:16;2.23;;;1.90;;
1024;SDS011;501;48.214;11.350;2022-10-16T04:26:42;3.83;;;1.60;;
1024;SDS011;501;48.214;11.350;2022-10-16T04:29:07;2.23;;;2.03;;
1024;SDS011;501;48.214;11.350;2022-10-16T04:31:36;3.73;;;2.20;;
1024;SDS011;501;48.214;11.350;2022-10-16T04:34:01;2.20;;;1.77;;
1024;SDS011;501;48.214;11.350;2022-10-16T04:36:27;3.50;;;2.30;;
1024;SDS011;501;48.214;11.350;2022-10-16T04:38:52;1.60;;;1.50;;
1024;SDS011;501;48.214;11.350;2022-10-16T04:41:19;4.83;;;2.27;;
1024;SDS011;501;48.214;11.350;2022-10-16T04:43:44;2.60;;;2.30;;
1024;SDS011;501;48.214;11.350;2022-10-16T04:46:10;3.07;;;2.77;;
1024;SDS011;501;48.214;11.350;2022-10-16T04:48:35;2.10;;;2.00;;
1024;SDS011;501;48.214;11.350;2022-10-16T04:51:01;3.37;;;2.00;;
1024;SDS011;501;48.214;11.350;2022-10-16T04:53:27;1.93;;;1.83;;
1024;SDS011;501;48.214;11.350;2022-10-16T04:55:52;2.77;;;2.10;;
1024;SDS011;501;48.214;11.350;2022-10-16T04:58:18;3.40;;;2.40;;
1024;SDS011;501;48.214;11.350;2022-10-16T05:00:44;2.20;;;2.00;;
1024;SDS011;501;48.214;11.350;2022-10-16T05:03:11;2.60;;;2.40;;
1024;SDS011;501;48.214;11.350;2022-10-16T05:05:41;1.70;;;1.60;;
1024;SDS011;501;48.214;11.350;2022-10-16T05:08:09;2.23;;;2.03;;
1024;SDS011;501;48.214;11.350;2022-10-16T05:10:38;2.87;;;2.57;;
1024;SDS011;501;48.214;11.350;2022-10-16T05:13:07;3.73;;;2.40;;
1024;SDS011;501;48.214;11.350;2022-10-16T05:15:33;2.47;;;1.83;;
1024;SDS011;501;48.214;11.350;2022-10-16T05:17:59;5.20;;;2.27;;
1024;SDS011;501;48.214;11.350;2022-10-16T05:20:24;2.10;;;1.90;;
1024;SDS011;501;48.214;11.350;2022-10-16T05:22:50;3.57;;;2.10;;
1024;SDS011;501;48.214;11.350;2022-10-16T05:25:16;2.50;;;1.97;;
1024;SDS011;501;48.214;11.350;2022-10-16T05:27:41;2.53;;;2.17;;
1024;SDS011;501;48.214;11.350;2022-10-16T05:30:07;6.40;;;2.20;;
1024;SDS011;501;48.214;11.350;2022-10-16T05:32:33;3.00;;;2.13;;
1024;SDS011;501;48.214;11.350;2022-10-16T05:34:59;4.83;;;2.03;;
1024;SDS011;501;48.214;11.350;2022-10-16T05:37:25;2.20;;;1.93;;
1024;SDS011;501;48.214;11.350;2022-10-16T05:39:52;2.40;;;1.83;;
1024;SDS011;501;48.214;11.350;2022-10-16T05:42:17;1.80;;;1.70;;
1024;SDS011;501;48.214;11.350;2022-10-16T05:44:43;3.63;;;1.90;;
1024;SDS011;501;48.214;11.350;2022-10-16T05:47:09;4.43;;;2.70;;
1024;SDS011;501;48.214;11.350;2022-10-16T05:49:35;4.83;;;2.50;;
1024;SDS011;501;48.214;11.350;2022-10-16T05:52:01;5.20;;;3.40;;
1024;SDS011;501;48.214;11.350;2022-10-16T05:54:27;3.73;;;3.10;;
1024;SDS011;501;48.214;11.350;2022-10-16T05:56:52;5.20;;;2.17;;
1024;SDS011;501;48.214;11.350;2022-10-16T05:59:18;2.80;;;2.60;;
1024;SDS011;501;48.214;11.350;2022-10-16T06:01:43;2.50;;;2.30;;
1024;SDS011;501;48.214;11.350;2022-10-16T06:04:09;4.17;;;2.43;;
1024;SDS011;501;48.214;11.350;2022-10-16T06:06:35;2.40;;;2.20;;
1024;SDS011;501;48.214;11.350;2022-10-16T06:09:01;4.30;;;2.40;;
1024;SDS011;501;48.214;11.350;2022-10-16T06:11:29;5.30;;;2.00;;
1024;SDS011;501;48.214;11.350;2022-10-16T06:13:56;1.93;;;1.80;;
1024;SDS011;501;48.214;11.350;2022-10-16T06:16:24;2.63;;;2.27;;
1024;SDS011;501;48.214;11.350;2022-10-16T06:18:51;8.50;;;2.83;;
1024;SDS011;501;48.214;11.350;2022-10-16T06:21:18;2.57;;;2.10;;
1024;SDS011;501;48.214;11.350;2022-10-16T06:23:45;3.20;;;2.33;;
1024;SDS011;501;48.214;11.350;2022-10-16T06:26:13;10.53;;;2.33;;
1024;SDS011;501;48.214;11.350;2022-10-16T06:28:44;3.63;;;2.20;;
1024;SDS011;501;48.214;11.350;2022-10-16T06:31:10;9.93;;;2.40;;
1024;SDS011;501;48.214;11.350;2022-10-16T06:33:37;3.23;;;2.20;;
1024;SDS011;501;48.214;11.350;2022-10-16T06:36:13;3.50;;;2.27;;
1024;SDS011;501;48.214;11.350;2022-10-16T06:38:40;4.63;;;2.17;;
1024;SDS011;501;48.214;11.350;2022-10-16T06:41:07;2.40;;;2.20;;
1024;SDS011;501;48.214;11.350;2022-10-16T06:43:34;2.83;;;2.17;;
1024;SDS011;501;48.214;11.350;2022-10-16T06:46:00;2.70;;;2.03;;
1024;SDS011;501;48.214;11.350;2022-10-16T06:48:28;2.30;;;2.10;;
1024;SDS011;501;48.214;11.350;2022-10-16T06:50:55;5.60;;;2.50;;
1024;SDS011;501;48.214;11.350;2022-10-16T06:53:32;7.03;;;2.60;;
1024;SDS011;501;48.214;11.350;2022-10-16T06:56:41;2.50;;;2.30;;
1024;SDS011;501;48.214;11.350;2022-10-16T06:58:49;5.90;;;2.80;;
1024;SDS011;501;48.214;11.350;2022-10-16T07:01:17;3.23;;;2.57;;
1024;SDS011;501;48.214;11.350;2022-10-16T07:03:44;4.77;;;2.70;;
1024;SDS011;501;48.214;11.350;2022-10-16T07:06:11;3.13;;;2.07;;
1024;SDS011;501;48.214;11.350;2022-10-16T07:08:39;2.50;;;2.30;;
1024;SDS011;501;48.214;11.350;2022-10-16T07:11:08;2.60;;;2.40;;
1024;SDS011;501;48.214;11.350;2022-10-16T07:13:35;3.30;;;2.73;;
1024;SDS011;501;48.214;11.350;2022-10-16T07:16:05;2.70;;;2.50;;
1024;SDS011;501;48.214;11.350;2022-10-16T07:18:32;3.60;;;2.50;;
1024;SDS011;501;48.214;11.350;2022-10-16T07:21:05;3.53;;;2.50;;
1024;SDS011;501;48.214;11.350;2022-10-16T07:23:32;3.20;;;2.90;;
1024;SDS011;501;48.214;11.350;2022-10-16T07:25:58;4.23;;;2.70;;
1024;SDS011;501;48.214;11.350;2022-10-16T07:28:24;2.13;;;2.03;;
1024;SDS011;501;48.214;11.350;2022-10-16T07:30:50;3.30;;;2.77;;
1024;SDS011;501;48.214;11.350;2022-10-16T07:33:15;3.17;;;2.87;;
1024;SDS011;501;48.214;11.350;2022-10-16T07:35:51;3.20;;;2.90;;
1024;SDS011;501;48.214;11.350;2022-10-16T07:38:17;2.80;;;2.60;;
1024;SDS011;501;48.214;11.350;2022-10-16T07:40:43;3.47;;;3.17;;
1024;SDS011;501;48.214;11.350;2022-10-16T07:43:09;4.20;;;3.50;;
1024;SDS011;501;48.214;11.350;2022-10-16T07:45:35;4.83;;;3.00;;
1024;SDS011;501;48.214;11.350;2022-10-16T07:48:00;4.80;;;3.03;;
1024;SDS011;501;48.214;11.350;2022-10-16T07:50:26;4.60;;;3.07;;
1024;SDS011;501;48.214;11.350;2022-10-16T07:52:52;4.13;;;3.73;;
1024;SDS011;501;48.214;11.350;2022-10-16T07:55:17;4.43;;;2.73;;
1024;SDS011;501;48.214;11.350;2022-10-16T07:57:43;4.03;;;3.10;;
1024;SDS011;501;48.214;11.350;2022-10-16T08:00:08;6.20;;;3.63;;
1024;SDS011;501;48.214;11.350;2022-10-16T08:02:39;3.33;;;3.03;;
1024;SDS011;501;48.214;11.350;2022-10-16T08:05:05;3.17;;;2.87;;
1024;SDS011;501;48.214;11.350;2022-10-16T08:07:31;3.00;;;2.70;;
1024;SDS011;501;48.214;11.350;2022-10-16T08:09:57;2.80;;;2.60;;
1024;SDS011;501;48.214;11.350;2022-10-16T08:12:23;3.53;;;3.10;;
1024;SDS011;501;48.214;11.350;2022-10-16T08:14:50;2.87;;;2.67;;
1024;SDS011;501;48.214;11.350;2022-10-16T08:17:15;4.23;;;3.10;;
1024;SDS011;501;48.214;11.350;2022-10-16T08:19:44;3.23;;;2.87;;
1024;SDS011;501;48.214;11.350;2022-10-16T08:22:13;2.67;;;2.47;;
1024;SDS011;501;48.214;11.350;2022-10-16T08:24:39;4.63;;;2.57;;
1024;SDS011;501;48.214;11.350;2022-10-16T08:27:05;2.53;;;2.33;;
1024;SDS011;501;48.214;11.350;2022-10-16T08:29:34;3.73;;;2.90;;
1024;SDS011;501;48.214;11.350;2022-10-16T08:32:00;3.97;;;2.97;;
1024;SDS011;501;48.214;11.350;2022-10-16T08:34:25;2.90;;;2.67;;
1024;SDS011;501;48.214;11.350;2022-10-16T08:36:52;3.50;;;3.13;;
1024;SDS011;501;48.214;11.350;2022-10-16T08:39:19;2.83;;;2.60;;
1024;SDS011;501;48.214;11.350;2022-10-16T08:49:58;2.73;;;2.50;;
1024;SDS011;501;48.214;11.350;2022-10-16T08:52:30;3.80;;;2.93;;
1024;SDS011;501;48.214;11.350;2022-10-16T08:55:00;2.90;;;2.20;;
1024;SDS011;501;48.214;11.350;2022-10-16T08:57:27;3.30;;;2.43;;
1024;SDS011;501;48.214;11.350;2022-10-16T08:59:53;3.30;;;2.83;;
1024;SDS011;501;48.214;11.350;2022-10-16T09:05:00;2.50;;;2.30;;
1024;SDS011;501;48.214;11.350;2022-10-16T09:07:43;2.30;;;2.10;;
1024;SDS011;501;48.214;11.350;2022-10-16T09:10:42;3.43;;;2.50;;
1024;SDS011;501;48.214;11.350;2022-10-16T09:13:36;3.37;;;2.40;;
1024;SDS011;501;48.214;11.350;2022-10-16T09:16:42;2.77;;;2.23;;
1024;SDS011;501;48.214;11.350;2022-10-16T09:19:19;3.13;;;1.87;;
1024;SDS011;501;48.214;11.350;2022-10-16T09:21:54;2.10;;;1.90;;
1024;SDS011;501;48.214;11.350;2022-10-16T09:24:21;2.00;;;1.90;;
1024;SDS011;501;48.214;11.350;2022-10-16T09:26:50;4.50;;;2.30;;
1024;SDS011;501;48.214;11.350;2022-10-16T09:29:17;2.27;;;1.93;;
1024;SDS011;501;48.214;11.350;2022-10-16T09:31:45;2.00;;;1.87;;
1024;SDS011;501;48.214;11.350;2022-10-16T09:34:15;2.00;;;1.80;;
1024;SDS011;501;48.214;11.350;2022-10-16T09:36:47;3.20;;;2.00;;
1024;SDS011;501;48.214;11.350;2022-10-16T09:39:14;1.80;;;1.70;;
1024;SDS011;501;48.214;11.350;2022-10-16T09:41:41;2.50;;;1.83;;
1024;SDS011;501;48.214;11.350;2022-10-16T09:44:19;1.80;;;1.70;;
1024;SDS011;501;48.214;11.350;2022-10-16T09:46:48;3.17;;;1.80;;
1024;SDS011;501;48.214;11.350;2022-10-16T09:49:24;2.60;;;1.60;;
1024;SDS011;501;48.214;11.350;2022-10-16T09:52:02;2.10;;;1.63;;
1024;SDS011;501;48.214;11.350;2022-10-16T09:54:29;1.73;;;1.63;;
1024;SDS011;501;48.214;11.350;2022-10-16T09:57:03;4.10;;;1.70;;
1024;SDS011;501;48.214;11.350;2022-10-16T09:59:31;1.83;;;1.40;;
1024;SDS011;501;48.214;11.350;2022-10-16T10:02:00;2.40;;;1.87;;
1024;SDS011;501;48.214;11.350;2022-10-16T10:04:36;2.03;;;1.83;;
1024;SDS011;501;48.214;11.350;2022-10-16T10:07:05;2.03;;;1.93;;
1024;SDS011;501;48.214;11.350;2022-10-16T10:09:39;3.60;;;1.60;;
1024;SDS011;501;48.214;11.350;2022-10-16T10:12:22;1.57;;;1.47;;
1024;SDS011;501;48.214;11.350;2022-10-16T10:14:50;2.40;;;1.70;;
1024;SDS011;501;48.214;11.350;2022-10-16T10:17:22;2.00;;;1.67;;
1024;SDS011;501;48.214;11.350;2022-10-16T10:19:55;2.10;;;1.90;;
1024;SDS011;501;48.214;11.350;2022-10-16T10:22:30;2.43;;;1.50;;
1024;SDS011;501;48.214;11.350;2022-10-16T10:25:12;3.53;;;1.60;;
1024;SDS011;501;48.214;11.350;2022-10-16T10:30:20;1.87;;;1.77;;
1024;SDS011;501;48.214;11.350;2022-10-16T10:35:21;2.50;;;2.23;;
1024;SDS011;501;48.214;11.350;2022-10-16T10:38:02;2.73;;;1.53;;
1024;SDS011;501;48.214;11.350;2022-10-16T10:40:51;1.50;;;1.40;;
1024;SDS011;501;48.214;11.350;2022-10-16T10:43:30;1.90;;;1.70;;
1024;SDS011;501;48.214;11.350;2022-10-16T10:46:20;2.13;;;1.63;;
1024;SDS011;501;48.214;11.350;2022-10-16T10:49:03;3.30;;;1.90;;
1024;SDS011;501;48.214;11.350;2022-10-16T10:57:03;5.83;;;1.80;;
1024;SDS011;501;48.214;11.350;2022-10-16T10:59:55;1.63;;;1.53;;
1024;SDS011;501;48.214;11.350;2022-10-16T11:02:37;1.43;;;1.20;;
1024;SDS011;501;48.214;11.350;2022-10-16T11:05:29;2.10;;;1.40;;
1024;SDS011;501;48.214;11.350;2022-10-16T11:08:19;1.20;;;1.10;;
1024;SDS011;501;48.214;11.350;2022-10-16T11:11:15;1.20;;;1.07;;
1024;SDS011;501;48.214;11.350;2022-10-16T11:16:39;1.90;;;1.40;;
1024;SDS011;501;48.214;11.350;2022-10-16T11:22:36;1.30;;;1.20;;
1024;SDS011;501;48.214;11.350;2022-10-16T11:25:13;1.30;;;1.20;;
1024;SDS011;501;48.214;11.350;2022-10-16T11:28:15;1.30;;;1.20;;
1024;SDS011;501;48.214;11.350;2022-10-16T11:33:31;1.33;;;1.23;;
1024;SDS011;501;48.214;11.350;2022-10-16T11:38:51;0.87;;;0.87;;
1024;SDS011;501;48.214;11.350;2022-10-16T11:41:51;1.53;;;1.00;;
1024;SDS011;501;48.214;11.350;2022-10-16T11:50:22;4.33;;;1.10;;
1024;SDS011;501;48.214;11.350;2022-10-16T11:55:37;2.30;;;0.90;;
1024;SDS011;501;48.214;11.350;2022-10-16T12:00:47;1.30;;;1.20;;
1024;SDS011;501;48.214;11.350;2022-10-16T12:06:05;1.30;;;0.60;;
1024;SDS011;501;48.214;11.350;2022-10-16T12:08:50;4.90;;;0.90;;
1024;SDS011;501;48.214;11.350;2022-10-16T12:13:51;0.77;;;0.70;;
1024;SDS011;501;48.214;11.350;2022-10-16T12:16:28;2.00;;;0.77;;
1024;SDS011;501;48.214;11.350;2022-10-16T12:19:13;1.20;;;1.00;;
1024;SDS011;501;48.214;11.350;2022-10-16T12:21:40;0.70;;;0.70;;
1024;SDS011;501;48.214;11.350;2022-10-16T12:24:18;0.80;;;0.80;;
1024;SDS011;501;48.214;11.350;2022-10-16T12:26:51;0.80;;;0.70;;
1024;SDS011;501;48.214;11.350;2022-10-16T12:31:48;1.43;;;0.93;;
1024;SDS011;501;48.214;11.350;2022-10-16T12:34:28;1.63;;;0.63;;
1024;SDS011;501;48.214;11.350;2022-10-16T12:39:44;1.67;;;0.70;;
1024;SDS011;501;48.214;11.350;2022-10-16T12:42:22;1.50;;;0.50;;
1024;SDS011;501;48.214;11.350;2022-10-16T12:44:56;0.60;;;0.60;;
1024;SDS011;501;48.214;11.350;2022-10-16T12:49:57;1.17;;;1.00;;
1024;SDS011;501;48.214;11.350;2022-10-16T12:52:27;0.50;;;0.50;;
1024;SDS011;501;48.214;11.350;2022-10-16T12:54:59;0.67;;;0.67;;
1024;SDS011;501;48.214;11.350;2022-10-16T13:00:44;2.23;;;2.00;;
1024;SDS011;501;48.214;11.350;2022-10-16T13:03:43;0.80;;;0.80;;
1024;SDS011;501;48.214;11.350;2022-10-16T13:06:14;0.80;;;0.80;;
1024;SDS011;501;48.214;11.350;2022-10-16T13:17:29;1.33;;;0.60;;
1024;SDS011;501;48.214;11.350;2022-10-16T13:28:22;0.70;;;0.70;;
1024;SDS011;501;48.214;11.350;2022-10-16T13:30:54;1.33;;;1.00;;
1024;SDS011;501;48.214;11.350;2022-10-16T13:35:55;1.37;;;1.00;;
1024;SDS011;501;48.214;11.350;2022-10-16T13:38:23;1.83;;;0.80;;
1024;SDS011;501;48.214;11.350;2022-10-16T13:40:51;1.43;;;0.80;;
1024;SDS011;501;48.214;11.350;2022-10-16T13:43:39;0.87;;;0.87;;
1024;SDS011;501;48.214;11.350;2022-10-16T13:46:15;0.83;;;0.83;;
1024;SDS011;501;48.214;11.350;2022-10-16T13:48:42;0.63;;;0.63;;
1024;SDS011;501;48.214;11.350;2022-10-16T13:51:14;1.70;;;0.70;;
1024;SDS011;501;48.214;11.350;2022-10-16T13:53:42;1.30;;;0.70;;
1024;SDS011;501;48.214;11.350;2022-10-16T13:56:13;1.43;;;0.80;;
1024;SDS011;501;48.214;11.350;2022-10-16T13:58:40;2.57;;;0.93;;
1024;SDS011;501;48.214;11.350;2022-10-16T14:01:15;1.50;;;0.83;;
1024;SDS011;501;48.214;11.350;2022-10-16T14:03:47;0.60;;;0.60;;
1024;SDS011;501;48.214;11.350;2022-10-16T14:06:15;0.70;;;0.70;;
1024;SDS011;501;48.214;11.350;2022-10-16T14:08:44;1.57;;;0.57;;
1024;SDS011;501;48.214;11.350;2022-10-16T14:11:19;1.27;;;0.87;;
1024;SDS011;501;48.214;11.350;2022-10-16T14:13:49;1.50;;;0.70;;
1024;SDS011;501;48.214;11.350;2022-10-16T14:16:20;0.60;;;0.60;;
1024;SDS011;501;48.214;11.350;2022-10-16T14:21:27;0.73;;;0.70;;
1024;SDS011;501;48.214;11.350;2022-10-16T14:23:53;1.10;;;0.53;;
1024;SDS011;501;48.214;11.350;2022-10-16T14:26:20;2.30;;;0.60;;
1024;SDS011;501;48.214;11.350;2022-10-16T14:28:48;0.50;;;0.50;;
1024;SDS011;501;48.214;11.350;2022-10-16T14:31:28;2.93;;;0.70;;
1024;SDS011;501;48.214;11.350;2022-10-16T14:33:58;0.60;;;0.60;;
1024;SDS011;501;48.214;11.350;2022-10-16T14:36:24;1.00;;;0.87;;
1024;SDS011;501;48.214;11.350;2022-10-16T14:39:03;1.13;;;1.07;;
1024;SDS011;501;48.214;11.350;2022-10-16T14:41:31;0.97;;;0.73;;
1024;SDS011;501;48.214;11.350;2022-10-16T14:44:05;0.70;;;0.70;;
1024;SDS011;501;48.214;11.350;2022-10-16T14:46:34;1.30;;;0.70;;
1024;SDS011;501;48.214;11.350;2022-10-16T14:51:40;1.97;;;1.00;;
1024;SDS011;501;48.214;11.350;2022-10-16T14:54:10;2.10;;;0.83;;
1024;SDS011;501;48.214;11.350;2022-10-16T14:56:48;0.70;;;0.70;;
1024;SDS011;501;48.214;11.350;2022-10-16T14:59:17;2.73;;;0.80;;
1024;SDS011;501;48.214;11.350;2022-10-16T15:01:47;1.23;;;1.07;;
1024;SDS011;501;48.214;11.350;2022-10-16T15:04:13;4.10;;;1.20;;
1024;SDS011;501;48.214;11.350;2022-10-16T15:06:41;0.83;;;0.70;;
1024;SDS011;501;48.214;11.350;2022-10-16T15:09:07;1.30;;;0.80;;
1024;SDS011;501;48.214;11.350;2022-10-16T15:11:32;2.83;;;0.93;;
1024;SDS011;501;48.214;11.350;2022-10-16T15:13:59;1.23;;;0.93;;
1024;SDS011;501;48.214;11.350;2022-10-16T15:16:24;1.13;;;1.03;;
1024;SDS011;501;48.214;11.350;2022-10-16T15:18:50;4.00;;;1.17;;
1024;SDS011;501;48.214;11.350;2022-10-16T15:21:21;2.60;;;0.90;;
1024;SDS011;501;48.214;11.350;2022-10-16T15:23:51;2.40;;;0.90;;
1024;SDS011;501;48.214;11.350;2022-10-16T15:26:16;1.33;;;1.07;;
1024;SDS011;501;48.214;11.350;2022-10-16T15:28:42;0.93;;;0.93;;
1024;SDS011;501;48.214;11.350;2022-10-16T15:31:08;9.47;;;1.10;;
1024;SDS011;501;48.214;11.350;2022-10-16T15:33:33;2.90;;;1.20;;
1024;SDS011;501;48.214;11.350;2022-10-16T15:36:00;1.50;;;1.40;;
1024;SDS011;501;48.214;11.350;2022-10-16T15:38:27;2.37;;;1.90;;
1024;SDS011;501;48.214;11.350;2022-10-16T15:40:53;2.00;;;1.70;;
1024;SDS011;501;48.214;11.350;2022-10-16T15:43:19;1.63;;;1.30;;
1024;SDS011;501;48.214;11.350;2022-10-16T15:45:58;1.70;;;1.60;;
1024;SDS011;501;48.214;11.350;2022-10-16T15:48:28;1.80;;;1.10;;
1024;SDS011;501;48.214;11.350;2022-10-16T15:50:54;2.47;;;1.13;;
1024;SDS011;501;48.214;11.350;2022-10-16T15:53:19;1.30;;;1.17;;
1024;SDS011;501;48.214;11.350;2022-10-16T15:55:45;1.57;;;1.40;;
1024;SDS011;501;48.214;11.350;2022-10-16T15:58:11;2.00;;;1.20;;
1024;SDS011;501;48.214;11.350;2022-10-16T16:00:36;2.30;;;1.67;;
1024;SDS011;501;48.214;11.350;2022-10-16T16:03:03;2.63;;;2.17;;
1024;SDS011;501;48.214;11.350;2022-10-16T16:05:28;2.80;;;2.60;;
1024;SDS011;501;48.214;11.350;2022-10-16T16:07:54;3.13;;;2.27;;
1024;SDS011;501;48.214;11.350;2022-10-16T16:10:20;3.80;;;2.10;;
1024;SDS011;501;48.214;11.350;2022-10-16T16:12:46;3.30;;;2.23;;
1024;SDS011;501;48.214;11.350;2022-10-16T16:15:16;2.10;;;1.80;;
1024;SDS011;501;48.214;11.350;2022-10-16T16:17:43;1.80;;;1.70;;
1024;SDS011;501;48.214;11.350;2022-10-16T16:20:09;5.13;;;1.90;;
1024;SDS011;501;48.214;11.350;2022-10-16T16:22:36;6.70;;;2.80;;
1024;SDS011;501;48.214;11.350;2022-10-16T16:25:01;2.30;;;1.73;;
1024;SDS011;501;48.214;11.350;2022-10-16T16:27:27;2.30;;;1.73;;
1024;SDS011;501;48.214;11.350;2022-10-16T16:29:54;4.67;;;2.00;;
1024;SDS011;501;48.214;11.350;2022-10-16T16:32:21;3.40;;;2.13;;
1024;SDS011;501;48.214;11.350;2022-10-16T16:34:46;3.13;;;1.90;;
1024;SDS011;501;48.214;11.350;2022-10-16T16:37:12;3.47;;;2.43;;
1024;SDS011;501;48.214;11.350;2022-10-16T16:39:38;4.37;;;2.33;;
1024;SDS011;501;48.214;11.350;2022-10-16T16:42:04;2.97;;;2.63;;
1024;SDS011;501;48.214;11.350;2022-10-16T16:44:31;3.17;;;2.33;;
1024;SDS011;501;48.214;11.350;2022-10-16T16:46:57;3.57;;;2.63;;
1024;SDS011;501;48.214;11.350;2022-10-16T16:49:23;4.77;;;2.03;;
1024;SDS011;501;48.214;11.350;2022-10-16T16:51:49;3.47;;;2.00;;
1024;SDS011;501;48.214;11.350;2022-10-16T16:54:14;2.30;;;1.60;;
1024;SDS011;501;48.214;11.350;2022-10-16T16:56:41;4.40;;;1.70;;
1024;SDS011;501;48.214;11.350;2022-10-16T16:59:11;2.10;;;1.30;;
1024;SDS011;501;48.214;11.350;2022-10-16T17:01:39;1.80;;;1.50;;
1024;SDS011;501;48.214;11.350;2022-10-16T17:04:05;4.07;;;1.73;;
1024;SDS011;501;48.214;11.350;2022-10-16T17:06:31;2.83;;;2.30;;
1024;SDS011;501;48.214;11.350;2022-10-16T17:08:57;3.77;;;1.73;;
1024;SDS011;501;48.214;11.350;2022-10-16T17:11:24;2.80;;;1.60;;
1024;SDS011;501;48.214;11.350;2022-10-16T17:13:51;4.30;;;2.07;;
1024;SDS011;501;48.214;11.350;2022-10-16T17:16:19;3.07;;;2.30;;